sensor_id;sensor_type;location;lat;lon;timestamp;temperature;humidity
73643;DHT22;61938;48.652;9.292;2022-08-01T00:00:35;18.60;99.90
73643;DHT22;61938;48.652;9.292;2022-08-01T00:03:00;18.60;99.90
73643;DHT22;61938;48.652;9.292;2022-08-01T00:05:26;18.50;99.90
73643;DHT22;61938;48.652;9.292;2022-08-01T00:07:52;18.50;99.90
73643;DHT22;61938;48.652;9.292;2022-08-01T00:10:18;18.40;99.90
73643;DHT22;61938;48.652;9.292;2022-08-01T00:12:44;18.40;99.90
73643;DHT22;61938;48.652;9.292;2022-08-01T00:15:12;18.40;99.90
73643;DHT22;61938;48.652;9.292;2022-08-01T00:17:38;18.40;99.90
73643;DHT22;61938;48.652;9.292;2022-08-01T00:20:07;18.40;99.90
73643;DHT22;61938;48.652;9.292;2022-08-01T00:22:33;18.30;99.90
73643;DHT22;61938;48.652;9.292;2022-08-01T00:25:00;18.30;99.90
73643;DHT22;61938;48.652;9.292;2022-08-01T00:27:26;18.20;99.90
73643;DHT22;61938;48.652;9.292;2022-08-01T00:29:51;18.20;99.90
73643;DHT22;61938;48.652;9.292;2022-08-01T00:32:17;18.10;99.90
73643;DHT22;61938;48.652;9.292;2022-08-01T00:34:43;18.00;99.90
73643;DHT22;61938;48.652;9.292;2022-08-01T00:37:09;18.00;99.90
73643;DHT22;61938;48.652;9.292;2022-08-01T00:39:35;18.00;99.90
73643;DHT22;61938;48.652;9.292;2022-08-01T00:42:06;17.90;99.90
73643;DHT22;61938;48.652;9.292;2022-08-01T00:44:33;17.90;99.90
73643;DHT22;61938;48.652;9.292;2022-08-01T00:46:59;17.90;99.90
73643;DHT22;61938;48.652;9.292;2022-08-01T00:49:25;17.80;99.90
73643;DHT22;61938;48.652;9.292;2022-08-01T00:51:51;17.80;99.90
73643;DHT22;61938;48.652;9.292;2022-08-01T00:54:16;17.80;99.90
73643;DHT22;61938;48.652;9.292;2022-08-01T00:56:42;17.70;99.90
73643;DHT22;61938;48.652;9.292;2022-08-01T00:59:09;17.80;99.90
73643;DHT22;61938;48.652;9.292;2022-08-01T01:01:36;17.70;99.90
73643;DHT22;61938;48.652;9.292;2022-08-01T01:04:02;17.70;99.90
73643;DHT22;61938;48.652;9.292;2022-08-01T01:12:28;17.60;99.90
73643;DHT22;61938;48.652;9.292;2022-08-01T01:20:13;17.50;99.90
73643;DHT22;61938;48.652;9.292;2022-08-01T01:30:42;17.30;99.90
73643;DHT22;61938;48.652;9.292;2022-08-01T01:33:10;17.30;99.90
73643;DHT22;61938;48.652;9.292;2022-08-01T01:35:42;17.30;99.90
73643;DHT22;61938;48.652;9.292;2022-08-01T01:38:13;17.30;99.90
73643;DHT22;61938;48.652;9.292;2022-08-01T01:40:40;17.30;99.90
73643;DHT22;61938;48.652;9.292;2022-08-01T01:43:10;17.30;99.90
73643;DHT22;61938;48.652;9.292;2022-08-01T01:45:37;17.30;99.90
73643;DHT22;61938;48.652;9.292;2022-08-01T01:48:06;17.30;99.90
73643;DHT22;61938;48.652;9.292;2022-08-01T01:50:34;17.30;99.90
73643;DHT22;61938;48.652;9.292;2022-08-01T01:53:02;17.30;99.90
73643;DHT22;61938;48.652;9.292;2022-08-01T01:55:30;17.20;99.90
73643;DHT22;61938;48.652;9.292;2022-08-01T01:57:56;17.20;99.90
73643;DHT22;61938;48.652;9.292;2022-08-01T02:00:23;17.20;99.90
73643;DHT22;61938;48.652;9.292;2022-08-01T02:02:51;17.20;99.90
73643;DHT22;61938;48.652;9.292;2022-08-01T02:05:18;17.20;99.90
73643;DHT22;61938;48.652;9.292;2022-08-01T02:07:47;17.10;99.90
73643;DHT22;61938;48.652;9.292;2022-08-01T02:10:14;17.00;99.90
73643;DHT22;61938;48.652;9.292;2022-08-01T02:12:43;16.90;99.90
73643;DHT22;61938;48.652;9.292;2022-08-01T02:15:12;16.90;99.90
73643;DHT22;61938;48.652;9.292;2022-08-01T02:17:44;16.80;99.90
73643;DHT22;61938;48.652;9.292;2022-08-01T02:20:13;16.80;99.90
73643;DHT22;61938;48.652;9.292;2022-08-01T02:22:50;16.70;99.90
73643;DHT22;61938;48.652;9.292;2022-08-01T02:25:27;16.70;99.90
73643;DHT22;61938;48.652;9.292;2022-08-01T02:28:04;16.70;99.90
73643;DHT22;61938;48.652;9.292;2022-08-01T02:30:37;16.70;99.90
73643;DHT22;61938;48.652;9.292;2022-08-01T02:33:26;16.60;99.90
73643;DHT22;61938;48.652;9.292;2022-08-01T02:35:56;16.70;99.90
73643;DHT22;61938;48.652;9.292;2022-08-01T02:38:26;16.60;99.90
73643;DHT22;61938;48.652;9.292;2022-08-01T02:40:55;16.50;99.90
73643;DHT22;61938;48.652;9.292;2022-08-01T02:43:25;16.50;99.90
73643;DHT22;61938;48.652;9.292;2022-08-01T02:46:01;16.60;99.90
73643;DHT22;61938;48.652;9.292;2022-08-01T02:48:30;16.60;99.90
73643;DHT22;61938;48.652;9.292;2022-08-01T02:50:59;16.60;99.90
73643;DHT22;61938;48.652;9.292;2022-08-01T02:53:27;16.60;99.90
73643;DHT22;61938;48.652;9.292;2022-08-01T02:55:57;16.70;99.90
73643;DHT22;61938;48.652;9.292;2022-08-01T02:58:24;16.70;99.90
73643;DHT22;61938;48.652;9.292;2022-08-01T03:00:51;16.60;99.90
73643;DHT22;61938;48.652;9.292;2022-08-01T03:03:18;16.50;99.90
73643;DHT22;61938;48.652;9.292;2022-08-01T03:05:44;16.50;99.90
73643;DHT22;61938;48.652;9.292;2022-08-01T03:08:11;16.50;99.90
73643;DHT22;61938;48.652;9.292;2022-08-01T03:10:42;16.60;99.90
73643;DHT22;61938;48.652;9.292;2022-08-01T03:13:09;16.60;99.90
73643;DHT22;61938;48.652;9.292;2022-08-01T03:15:39;16.60;99.90
73643;DHT22;61938;48.652;9.292;2022-08-01T03:18:07;16.50;99.90
73643;DHT22;61938;48.652;9.292;2022-08-01T03:20:35;16.50;99.90
73643;DHT22;61938;48.652;9.292;2022-08-01T03:23:07;16.50;99.90
73643;DHT22;61938;48.652;9.292;2022-08-01T03:25:36;16.50;99.90
73643;DHT22;61938;48.652;9.292;2022-08-01T03:28:04;16.50;99.90
73643;DHT22;61938;48.652;9.292;2022-08-01T03:30:33;16.40;99.90
73643;DHT22;61938;48.652;9.292;2022-08-01T03:33:01;16.40;99.90
73643;DHT22;61938;48.652;9.292;2022-08-01T03:35:30;16.40;99.90
73643;DHT22;61938;48.652;9.292;2022-08-01T03:38:00;16.40;99.90
73643;DHT22;61938;48.652;9.292;2022-08-01T03:40:40;16.40;99.90
73643;DHT22;61938;48.652;9.292;2022-08-01T03:43:16;16.40;99.90
73643;DHT22;61938;48.652;9.292;2022-08-01T03:45:48;16.30;99.90
73643;DHT22;61938;48.652;9.292;2022-08-01T03:48:17;16.30;99.90
73643;DHT22;61938;48.652;9.292;2022-08-01T03:50:46;16.30;99.90
73643;DHT22;61938;48.652;9.292;2022-08-01T03:53:13;16.30;99.90
73643;DHT22;61938;48.652;9.292;2022-08-01T03:55:42;16.30;99.90
73643;DHT22;61938;48.652;9.292;2022-08-01T03:58:10;16.20;99.90
73643;DHT22;61938;48.652;9.292;2022-08-01T04:00:38;16.20;99.90
73643;DHT22;61938;48.652;9.292;2022-08-01T04:03:08;16.20;99.90
73643;DHT22;61938;48.652;9.292;2022-08-01T04:05:34;16.20;99.90
73643;DHT22;61938;48.652;9.292;2022-08-01T04:08:01;16.20;99.90
73643;DHT22;61938;48.652;9.292;2022-08-01T04:10:28;16.30;99.90
73643;DHT22;61938;48.652;9.292;2022-08-01T04:12:54;16.30;99.90
73643;DHT22;61938;48.652;9.292;2022-08-01T04:15:20;16.30;99.90
73643;DHT22;61938;48.652;9.292;2022-08-01T04:17:46;16.30;99.90
73643;DHT22;61938;48.652;9.292;2022-08-01T04:20:13;16.20;99.90
73643;DHT22;61938;48.652;9.292;2022-08-01T04:22:39;16.20;99.90
73643;DHT22;61938;48.652;9.292;2022-08-01T04:25:19;16.20;99.90
73643;DHT22;61938;48.652;9.292;2022-08-01T04:27:48;16.20;99.90
73643;DHT22;61938;48.652;9.292;2022-08-01T04:30:18;16.20;99.90
73643;DHT22;61938;48.652;9.292;2022-08-01T04:32:46;16.20;99.90
73643;DHT22;61938;48.652;9.292;2022-08-01T04:35:14;16.30;99.90
73643;DHT22;61938;48.652;9.292;2022-08-01T04:37:46;16.30;99.90
73643;DHT22;61938;48.652;9.292;2022-08-01T04:40:14;16.30;99.90
73643;DHT22;61938;48.652;9.292;2022-08-01T04:42:40;16.40;99.90
73643;DHT22;61938;48.652;9.292;2022-08-01T04:45:07;16.40;99.90
73643;DHT22;61938;48.652;9.292;2022-08-01T04:47:35;16.50;99.90
73643;DHT22;61938;48.652;9.292;2022-08-01T04:50:07;16.50;99.90
73643;DHT22;61938;48.652;9.292;2022-08-01T04:52:34;16.60;99.90
73643;DHT22;61938;48.652;9.292;2022-08-01T04:55:00;16.60;99.90
73643;DHT22;61938;48.652;9.292;2022-08-01T04:57:26;16.60;99.90
73643;DHT22;61938;48.652;9.292;2022-08-01T04:59:52;16.70;99.90
73643;DHT22;61938;48.652;9.292;2022-08-01T05:02:22;16.70;99.90
73643;DHT22;61938;48.652;9.292;2022-08-01T05:04:48;16.80;99.90
73643;DHT22;61938;48.652;9.292;2022-08-01T05:07:15;16.70;99.90
73643;DHT22;61938;48.652;9.292;2022-08-01T05:09:41;16.70;99.90
73643;DHT22;61938;48.652;9.292;2022-08-01T05:12:08;16.70;99.90
73643;DHT22;61938;48.652;9.292;2022-08-01T05:14:34;16.60;99.90
73643;DHT22;61938;48.652;9.292;2022-08-01T05:17:06;16.70;99.90
73643;DHT22;61938;48.652;9.292;2022-08-01T05:19:33;16.60;99.90
73643;DHT22;61938;48.652;9.292;2022-08-01T05:22:00;16.70;99.90
73643;DHT22;61938;48.652;9.292;2022-08-01T05:24:30;16.90;99.90
73643;DHT22;61938;48.652;9.292;2022-08-01T05:26:56;17.00;99.90
73643;DHT22;61938;48.652;9.292;2022-08-01T05:29:23;17.30;99.90
73643;DHT22;61938;48.652;9.292;2022-08-01T05:31:49;17.50;99.90
73643;DHT22;61938;48.652;9.292;2022-08-01T05:34:15;17.70;99.90
73643;DHT22;61938;48.652;9.292;2022-08-01T05:36:41;17.80;99.90
73643;DHT22;61938;48.652;9.292;2022-08-01T05:39:08;17.90;99.90
73643;DHT22;61938;48.652;9.292;2022-08-01T05:41:35;17.50;99.90
73643;DHT22;61938;48.652;9.292;2022-08-01T05:44:03;18.00;99.90
73643;DHT22;61938;48.652;9.292;2022-08-01T05:46:28;18.00;99.90
73643;DHT22;61938;48.652;9.292;2022-08-01T05:48:59;17.90;99.90
73643;DHT22;61938;48.652;9.292;2022-08-01T05:51:25;17.90;99.90
73643;DHT22;61938;48.652;9.292;2022-08-01T05:53:51;17.90;99.90
73643;DHT22;61938;48.652;9.292;2022-08-01T05:56:18;18.00;99.90
73643;DHT22;61938;48.652;9.292;2022-08-01T05:58:43;18.10;99.90
73643;DHT22;61938;48.652;9.292;2022-08-01T06:01:09;18.20;99.90
73643;DHT22;61938;48.652;9.292;2022-08-01T06:03:35;18.40;99.90
73643;DHT22;61938;48.652;9.292;2022-08-01T06:06:01;18.60;99.90
73643;DHT22;61938;48.652;9.292;2022-08-01T06:08:27;18.80;99.90
73643;DHT22;61938;48.652;9.292;2022-08-01T06:10:53;19.00;99.90
73643;DHT22;61938;48.652;9.292;2022-08-01T06:13:19;19.10;99.90
73643;DHT22;61938;48.652;9.292;2022-08-01T06:15:46;19.30;99.90
73643;DHT22;61938;48.652;9.292;2022-08-01T06:18:12;19.40;99.90
73643;DHT22;61938;48.652;9.292;2022-08-01T06:20:38;19.70;99.90
73643;DHT22;61938;48.652;9.292;2022-08-01T06:23:04;19.80;99.90
73643;DHT22;61938;48.652;9.292;2022-08-01T06:25:30;19.90;99.90
73643;DHT22;61938;48.652;9.292;2022-08-01T06:27:55;20.10;99.90
73643;DHT22;61938;48.652;9.292;2022-08-01T06:30:21;20.20;99.90
73643;DHT22;61938;48.652;9.292;2022-08-01T06:32:47;20.40;99.90
73643;DHT22;61938;48.652;9.292;2022-08-01T06:35:14;20.50;99.90
73643;DHT22;61938;48.652;9.292;2022-08-01T06:37:40;20.60;99.90
73643;DHT22;61938;48.652;9.292;2022-08-01T06:40:08;20.60;99.90
73643;DHT22;61938;48.652;9.292;2022-08-01T06:42:35;20.60;99.90
73643;DHT22;61938;48.652;9.292;2022-08-01T06:45:06;20.60;99.90
73643;DHT22;61938;48.652;9.292;2022-08-01T06:47:32;20.60;99.90
73643;DHT22;61938;48.652;9.292;2022-08-01T06:49:58;20.70;99.90
73643;DHT22;61938;48.652;9.292;2022-08-01T06:52:24;20.80;99.90
73643;DHT22;61938;48.652;9.292;2022-08-01T06:54:50;20.90;99.90
73643;DHT22;61938;48.652;9.292;2022-08-01T06:57:16;21.00;99.90
73643;DHT22;61938;48.652;9.292;2022-08-01T06:59:42;21.30;99.90
73643;DHT22;61938;48.652;9.292;2022-08-01T07:02:08;21.40;99.90
73643;DHT22;61938;48.652;9.292;2022-08-01T07:04:34;21.60;99.90
73643;DHT22;61938;48.652;9.292;2022-08-01T07:07:00;21.80;99.90
73643;DHT22;61938;48.652;9.292;2022-08-01T07:09:26;21.90;99.90
73643;DHT22;61938;48.652;9.292;2022-08-01T07:11:52;22.00;99.90
73643;DHT22;61938;48.652;9.292;2022-08-01T07:14:20;22.00;99.90
73643;DHT22;61938;48.652;9.292;2022-08-01T07:16:46;22.00;99.90
73643;DHT22;61938;48.652;9.292;2022-08-01T07:19:12;22.10;99.90
73643;DHT22;61938;48.652;9.292;2022-08-01T07:21:38;22.30;99.90
73643;DHT22;61938;48.652;9.292;2022-08-01T07:24:09;22.40;99.90
73643;DHT22;61938;48.652;9.292;2022-08-01T07:26:35;22.40;99.90
73643;DHT22;61938;48.652;9.292;2022-08-01T07:29:01;22.50;99.90
73643;DHT22;61938;48.652;9.292;2022-08-01T07:31:28;22.60;99.90
73643;DHT22;61938;48.652;9.292;2022-08-01T07:33:54;22.60;99.90
73643;DHT22;61938;48.652;9.292;2022-08-01T07:36:20;22.70;99.90
73643;DHT22;61938;48.652;9.292;2022-08-01T07:38:46;22.80;99.90
73643;DHT22;61938;48.652;9.292;2022-08-01T07:41:12;22.80;99.90
73643;DHT22;61938;48.652;9.292;2022-08-01T07:43:37;22.80;99.90
73643;DHT22;61938;48.652;9.292;2022-08-01T07:46:04;23.00;99.90
73643;DHT22;61938;48.652;9.292;2022-08-01T07:48:30;23.10;99.90
73643;DHT22;61938;48.652;9.292;2022-08-01T07:50:56;23.30;99.90
73643;DHT22;61938;48.652;9.292;2022-08-01T07:53:22;23.40;99.90
73643;DHT22;61938;48.652;9.292;2022-08-01T07:55:47;23.50;99.90
73643;DHT22;61938;48.652;9.292;2022-08-01T07:58:14;23.50;99.90
73643;DHT22;61938;48.652;9.292;2022-08-01T08:00:40;23.60;99.90
73643;DHT22;61938;48.652;9.292;2022-08-01T08:03:06;23.70;99.90
73643;DHT22;61938;48.652;9.292;2022-08-01T08:05:32;23.70;99.90
73643;DHT22;61938;48.652;9.292;2022-08-01T08:08:07;23.70;99.90
73643;DHT22;61938;48.652;9.292;2022-08-01T08:10:33;23.70;99.90
73643;DHT22;61938;48.652;9.292;2022-08-01T08:13:00;23.70;99.90
73643;DHT22;61938;48.652;9.292;2022-08-01T08:15:27;23.80;99.90
73643;DHT22;61938;48.652;9.292;2022-08-01T08:17:53;23.90;99.90
73643;DHT22;61938;48.652;9.292;2022-08-01T08:20:18;24.00;99.90
73643;DHT22;61938;48.652;9.292;2022-08-01T08:22:44;24.00;99.90
73643;DHT22;61938;48.652;9.292;2022-08-01T08:25:10;24.40;99.90
73643;DHT22;61938;48.652;9.292;2022-08-01T08:27:37;24.50;99.90
73643;DHT22;61938;48.652;9.292;2022-08-01T08:30:04;24.60;99.90
73643;DHT22;61938;48.652;9.292;2022-08-01T08:32:33;24.60;99.90
73643;DHT22;61938;48.652;9.292;2022-08-01T08:34:58;24.80;99.90
73643;DHT22;61938;48.652;9.292;2022-08-01T08:37:24;24.80;99.90
73643;DHT22;61938;48.652;9.292;2022-08-01T08:39:50;24.80;99.90
73643;DHT22;61938;48.652;9.292;2022-08-01T08:42:15;24.80;99.90
73643;DHT22;61938;48.652;9.292;2022-08-01T08:44:42;25.00;99.90
73643;DHT22;61938;48.652;9.292;2022-08-01T08:47:08;25.10;99.90
73643;DHT22;61938;48.652;9.292;2022-08-01T08:49:36;25.00;99.90
73643;DHT22;61938;48.652;9.292;2022-08-01T08:52:04;25.10;99.90
73643;DHT22;61938;48.652;9.292;2022-08-01T08:54:30;25.00;99.90
73643;DHT22;61938;48.652;9.292;2022-08-01T08:56:58;25.10;99.90
73643;DHT22;61938;48.652;9.292;2022-08-01T08:59:24;24.90;99.90
73643;DHT22;61938;48.652;9.292;2022-08-01T09:01:51;24.80;99.90
73643;DHT22;61938;48.652;9.292;2022-08-01T09:04:17;24.90;99.90
73643;DHT22;61938;48.652;9.292;2022-08-01T09:06:43;25.00;99.90
73643;DHT22;61938;48.652;9.292;2022-08-01T09:09:09;25.00;99.90
73643;DHT22;61938;48.652;9.292;2022-08-01T09:11:36;25.10;99.90
73643;DHT22;61938;48.652;9.292;2022-08-01T09:14:08;25.30;99.90
73643;DHT22;61938;48.652;9.292;2022-08-01T09:16:35;25.50;99.90
73643;DHT22;61938;48.652;9.292;2022-08-01T09:21:34;25.60;99.90
73643;DHT22;61938;48.652;9.292;2022-08-01T09:24:00;25.70;99.90
73643;DHT22;61938;48.652;9.292;2022-08-01T09:26:35;25.60;99.90
73643;DHT22;61938;48.652;9.292;2022-08-01T09:29:06;25.70;99.90
73643;DHT22;61938;48.652;9.292;2022-08-01T09:31:40;25.60;99.90
73643;DHT22;61938;48.652;9.292;2022-08-01T09:34:07;25.90;99.90
73643;DHT22;61938;48.652;9.292;2022-08-01T09:37:04;25.80;99.90
73643;DHT22;61938;48.652;9.292;2022-08-01T09:39:36;25.70;99.90
73643;DHT22;61938;48.652;9.292;2022-08-01T09:42:26;25.90;99.90
73643;DHT22;61938;48.652;9.292;2022-08-01T09:44:53;26.20;99.90
73643;DHT22;61938;48.652;9.292;2022-08-01T09:47:19;26.20;99.90
73643;DHT22;61938;48.652;9.292;2022-08-01T09:49:55;26.00;99.90
73643;DHT22;61938;48.652;9.292;2022-08-01T09:52:23;25.70;99.90
73643;DHT22;61938;48.652;9.292;2022-08-01T09:54:56;25.70;99.90
73643;DHT22;61938;48.652;9.292;2022-08-01T09:57:23;25.90;99.90
73643;DHT22;61938;48.652;9.292;2022-08-01T09:59:51;26.10;99.90
73643;DHT22;61938;48.652;9.292;2022-08-01T10:02:34;26.10;99.90
73643;DHT22;61938;48.652;9.292;2022-08-01T10:05:03;25.90;99.90
73643;DHT22;61938;48.652;9.292;2022-08-01T10:07:29;25.80;99.90
73643;DHT22;61938;48.652;9.292;2022-08-01T10:09:54;25.80;99.90
73643;DHT22;61938;48.652;9.292;2022-08-01T10:12:23;25.60;99.90
73643;DHT22;61938;48.652;9.292;2022-08-01T10:14:50;25.60;99.90
73643;DHT22;61938;48.652;9.292;2022-08-01T10:17:24;25.80;99.90
73643;DHT22;61938;48.652;9.292;2022-08-01T10:19:51;26.10;99.90
73643;DHT22;61938;48.652;9.292;2022-08-01T10:22:23;26.30;99.90
73643;DHT22;61938;48.652;9.292;2022-08-01T10:24:50;26.60;99.90
73643;DHT22;61938;48.652;9.292;2022-08-01T10:27:19;26.70;99.90
73643;DHT22;61938;48.652;9.292;2022-08-01T10:29:55;26.90;99.80
73643;DHT22;61938;48.652;9.292;2022-08-01T10:32:22;26.70;99.90
73643;DHT22;61938;48.652;9.292;2022-08-01T10:34:52;26.90;99.90
73643;DHT22;61938;48.652;9.292;2022-08-01T10:37:18;27.00;99.90
73643;DHT22;61938;48.652;9.292;2022-08-01T10:39:44;26.90;99.90
73643;DHT22;61938;48.652;9.292;2022-08-01T10:42:11;26.60;98.80
73643;DHT22;61938;48.652;9.292;2022-08-01T10:44:38;26.50;99.90
73643;DHT22;61938;48.652;9.292;2022-08-01T10:47:09;26.20;99.90
73643;DHT22;61938;48.652;9.292;2022-08-01T10:49:43;26.10;99.90
73643;DHT22;61938;48.652;9.292;2022-08-01T10:52:17;25.90;99.90
73643;DHT22;61938;48.652;9.292;2022-08-01T10:54:44;25.80;99.90
73643;DHT22;61938;48.652;9.292;2022-08-01T10:57:10;25.70;99.90
73643;DHT22;61938;48.652;9.292;2022-08-01T10:59:48;25.90;99.90
73643;DHT22;61938;48.652;9.292;2022-08-01T11:02:29;26.20;99.90
73643;DHT22;61938;48.652;9.292;2022-08-01T11:05:01;26.50;99.90
73643;DHT22;61938;48.652;9.292;2022-08-01T11:07:48;26.50;99.90
73643;DHT22;61938;48.652;9.292;2022-08-01T11:10:24;26.40;99.90
73643;DHT22;61938;48.652;9.292;2022-08-01T11:12:50;26.50;99.90
73643;DHT22;61938;48.652;9.292;2022-08-01T11:15:18;26.70;99.90
73643;DHT22;61938;48.652;9.292;2022-08-01T11:17:51;27.00;99.90
73643;DHT22;61938;48.652;9.292;2022-08-01T11:20:17;27.20;99.90
73643;DHT22;61938;48.652;9.292;2022-08-01T11:36:17;26.20;99.90
73643;DHT22;61938;48.652;9.292;2022-08-01T11:38:47;26.00;99.90
73643;DHT22;61938;48.652;9.292;2022-08-01T11:44:06;25.80;99.90
73643;DHT22;61938;48.652;9.292;2022-08-01T11:49:32;25.60;99.90
73643;DHT22;61938;48.652;9.292;2022-08-01T11:52:07;25.60;99.90
73643;DHT22;61938;48.652;9.292;2022-08-01T11:57:30;25.60;99.90
73643;DHT22;61938;48.652;9.292;2022-08-01T11:59:57;25.70;99.90
73643;DHT22;61938;48.652;9.292;2022-08-01T12:02:29;25.60;99.90
73643;DHT22;61938;48.652;9.292;2022-08-01T12:04:56;25.60;99.90
73643;DHT22;61938;48.652;9.292;2022-08-01T12:07:24;25.60;99.90
73643;DHT22;61938;48.652;9.292;2022-08-01T12:12:34;24.60;99.90
73643;DHT22;61938;48.652;9.292;2022-08-01T12:15:08;25.60;99.90
73643;DHT22;61938;48.652;9.292;2022-08-01T12:17:37;25.60;99.90
73643;DHT22;61938;48.652;9.292;2022-08-01T12:20:06;25.50;99.90
73643;DHT22;61938;48.652;9.292;2022-08-01T12:22:32;25.60;99.90
73643;DHT22;61938;48.652;9.292;2022-08-01T12:25:09;25.50;99.90
73643;DHT22;61938;48.652;9.292;2022-08-01T12:27:37;25.50;99.90
73643;DHT22;61938;48.652;9.292;2022-08-01T12:30:09;25.50;99.90
73643;DHT22;61938;48.652;9.292;2022-08-01T12:32:37;25.50;99.90
73643;DHT22;61938;48.652;9.292;2022-08-01T12:35:10;25.50;99.90
73643;DHT22;61938;48.652;9.292;2022-08-01T12:37:42;25.50;99.90
73643;DHT22;61938;48.652;9.292;2022-08-01T12:40:16;25.50;99.90
73643;DHT22;61938;48.652;9.292;2022-08-01T12:42:44;25.50;99.90
73643;DHT22;61938;48.652;9.292;2022-08-01T12:45:13;25.40;99.90
73643;DHT22;61938;48.652;9.292;2022-08-01T12:47:40;25.40;99.90
73643;DHT22;61938;48.652;9.292;2022-08-01T12:50:08;25.50;99.90
73643;DHT22;61938;48.652;9.292;2022-08-01T12:52:36;25.70;99.90
73643;DHT22;61938;48.652;9.292;2022-08-01T12:55:14;26.00;99.90
73643;DHT22;61938;48.652;9.292;2022-08-01T12:57:42;26.40;99.90
73643;DHT22;61938;48.652;9.292;2022-08-01T13:02:37;26.80;99.90
73643;DHT22;61938;48.652;9.292;2022-08-01T13:05:04;27.00;99.90
73643;DHT22;61938;48.652;9.292;2022-08-01T13:07:48;27.10;99.30
73643;DHT22;61938;48.652;9.292;2022-08-01T13:10:23;27.30;99.30
73643;DHT22;61938;48.652;9.292;2022-08-01T13:12:56;27.30;97.10
73643;DHT22;61938;48.652;9.292;2022-08-01T13:15:30;27.00;97.90
73643;DHT22;61938;48.652;9.292;2022-08-01T13:18:21;26.80;98.40
73643;DHT22;61938;48.652;9.292;2022-08-01T13:20:46;26.70;98.80
73643;DHT22;61938;48.652;9.292;2022-08-01T13:23:19;26.60;98.40
73643;DHT22;61938;48.652;9.292;2022-08-01T13:25:54;26.40;98.30
73643;DHT22;61938;48.652;9.292;2022-08-01T13:28:23;26.30;99.20
73643;DHT22;61938;48.652;9.292;2022-08-01T13:33:46;26.00;99.30
73643;DHT22;61938;48.652;9.292;2022-08-01T13:36:13;25.90;99.90
73643;DHT22;61938;48.652;9.292;2022-08-01T13:38:40;25.90;99.90
73643;DHT22;61938;48.652;9.292;2022-08-01T13:41:25;26.20;98.80
73643;DHT22;61938;48.652;9.292;2022-08-01T13:43:51;26.70;99.90
73643;DHT22;61938;48.652;9.292;2022-08-01T13:46:16;27.00;98.90
73643;DHT22;61938;48.652;9.292;2022-08-01T13:48:42;27.00;97.50
73643;DHT22;61938;48.652;9.292;2022-08-01T13:51:08;26.90;97.20
73643;DHT22;61938;48.652;9.292;2022-08-01T13:53:34;26.80;98.50
73643;DHT22;61938;48.652;9.292;2022-08-01T13:56:00;26.80;98.60
73643;DHT22;61938;48.652;9.292;2022-08-01T13:58:26;26.70;98.50
73643;DHT22;61938;48.652;9.292;2022-08-01T14:00:54;26.60;97.30
73643;DHT22;61938;48.652;9.292;2022-08-01T14:03:21;26.70;98.30
73643;DHT22;61938;48.652;9.292;2022-08-01T14:05:47;26.90;99.40
73643;DHT22;61938;48.652;9.292;2022-08-01T14:08:13;27.00;99.90
73643;DHT22;61938;48.652;9.292;2022-08-01T14:10:38;27.00;99.60
73643;DHT22;61938;48.652;9.292;2022-08-01T14:13:04;26.90;99.80
73643;DHT22;61938;48.652;9.292;2022-08-01T14:15:31;27.00;99.80
73643;DHT22;61938;48.652;9.292;2022-08-01T14:17:57;27.10;99.00
73643;DHT22;61938;48.652;9.292;2022-08-01T14:20:23;27.10;99.70
73643;DHT22;61938;48.652;9.292;2022-08-01T14:22:49;27.20;99.60
73643;DHT22;61938;48.652;9.292;2022-08-01T14:25:15;27.10;98.10
73643;DHT22;61938;48.652;9.292;2022-08-01T14:27:44;27.00;97.70
73643;DHT22;61938;48.652;9.292;2022-08-01T14:30:10;26.90;98.00
73643;DHT22;61938;48.652;9.292;2022-08-01T14:32:36;26.80;98.20
73643;DHT22;61938;48.652;9.292;2022-08-01T14:35:04;26.70;98.00
73643;DHT22;61938;48.652;9.292;2022-08-01T14:37:31;26.60;99.40
73643;DHT22;61938;48.652;9.292;2022-08-01T14:39:57;26.50;98.10
73643;DHT22;61938;48.652;9.292;2022-08-01T14:42:23;26.30;99.90
73643;DHT22;61938;48.652;9.292;2022-08-01T14:44:49;26.10;99.90
73643;DHT22;61938;48.652;9.292;2022-08-01T14:47:15;25.90;99.90
73643;DHT22;61938;48.652;9.292;2022-08-01T14:49:41;25.80;99.90
73643;DHT22;61938;48.652;9.292;2022-08-01T14:52:06;25.70;99.90
73643;DHT22;61938;48.652;9.292;2022-08-01T14:54:32;25.60;99.90
73643;DHT22;61938;48.652;9.292;2022-08-01T14:56:58;25.60;99.90
73643;DHT22;61938;48.652;9.292;2022-08-01T14:59:24;25.50;99.90
73643;DHT22;61938;48.652;9.292;2022-08-01T15:01:49;25.50;99.90
73643;DHT22;61938;48.652;9.292;2022-08-01T15:04:15;25.50;99.90
73643;DHT22;61938;48.652;9.292;2022-08-01T15:06:43;25.50;99.90
73643;DHT22;61938;48.652;9.292;2022-08-01T15:09:09;25.50;99.90
73643;DHT22;61938;48.652;9.292;2022-08-01T15:11:36;25.50;99.90
73643;DHT22;61938;48.652;9.292;2022-08-01T15:14:02;25.60;99.90
73643;DHT22;61938;48.652;9.292;2022-08-01T15:16:46;25.70;99.90
73643;DHT22;61938;48.652;9.292;2022-08-01T15:19:12;25.70;99.90
73643;DHT22;61938;48.652;9.292;2022-08-01T15:21:38;25.80;99.90
73643;DHT22;61938;48.652;9.292;2022-08-01T15:24:04;25.80;99.90
73643;DHT22;61938;48.652;9.292;2022-08-01T15:26:30;25.80;99.90
73643;DHT22;61938;48.652;9.292;2022-08-01T15:28:56;25.80;99.90
73643;DHT22;61938;48.652;9.292;2022-08-01T15:31:22;25.80;99.90
73643;DHT22;61938;48.652;9.292;2022-08-01T15:33:48;25.80;99.90
73643;DHT22;61938;48.652;9.292;2022-08-01T15:36:14;25.80;99.90
73643;DHT22;61938;48.652;9.292;2022-08-01T15:38:39;25.80;99.90
73643;DHT22;61938;48.652;9.292;2022-08-01T15:41:05;25.80;99.90
73643;DHT22;61938;48.652;9.292;2022-08-01T15:43:31;25.80;99.40
73643;DHT22;61938;48.652;9.292;2022-08-01T15:45:57;25.80;99.50
73643;DHT22;61938;48.652;9.292;2022-08-01T15:48:23;25.80;99.10
73643;DHT22;61938;48.652;9.292;2022-08-01T15:50:49;25.70;99.90
73643;DHT22;61938;48.652;9.292;2022-08-01T15:53:15;25.70;99.90
73643;DHT22;61938;48.652;9.292;2022-08-01T15:55:41;25.70;99.90
73643;DHT22;61938;48.652;9.292;2022-08-01T15:58:07;25.70;99.90
73643;DHT22;61938;48.652;9.292;2022-08-01T16:00:34;25.70;99.90
73643;DHT22;61938;48.652;9.292;2022-08-01T16:02:59;25.70;99.90
73643;DHT22;61938;48.652;9.292;2022-08-01T16:05:25;25.60;99.90
73643;DHT22;61938;48.652;9.292;2022-08-01T16:07:51;25.50;99.90
73643;DHT22;61938;48.652;9.292;2022-08-01T16:10:16;25.50;99.90
73643;DHT22;61938;48.652;9.292;2022-08-01T16:12:43;25.40;99.90
73643;DHT22;61938;48.652;9.292;2022-08-01T16:15:09;25.40;99.90
73643;DHT22;61938;48.652;9.292;2022-08-01T16:17:35;25.40;99.90
73643;DHT22;61938;48.652;9.292;2022-08-01T16:20:01;25.30;99.90
73643;DHT22;61938;48.652;9.292;2022-08-01T16:22:28;25.30;99.90
73643;DHT22;61938;48.652;9.292;2022-08-01T16:24:53;25.10;99.90
73643;DHT22;61938;48.652;9.292;2022-08-01T16:27:19;25.20;99.90